Time;durP1;ratioP1;P1;durP2;ratioP2;P2;SDS_P1;SDS_P2;PMS_P1;PMS_P2;Temp;Humidity;BMP_temperature;BMP_pressure;BME280_temperature;BME280_humidity;BME280_pressure;Samples;Min_cycle;Max_cycle;Signal;HPM_P1;HPM_P2
2023/10/17 00:02:26;;;;;;;5.30;2.17;;;7.70;99.90;;;;;;5077522;28;20422;-88
2023/10/17 00:04:51;;;;;;;5.45;2.15;;;7.70;99.90;;;;;;5077445;28;20491;-88
2023/10/17 00:07:17;;;;;;;6.68;2.17;;;7.70;99.90;;;;;;5094613;28;20102;-89
2023/10/17 00:09:42;;;;;;;5.70;2.05;;;7.70;99.90;;;;;;5094024;28;20408;-89
2023/10/17 00:14:45;;;;;;;4.82;2.08;;;7.70;99.90;;;;;;5093941;28;20054;-88
2023/10/17 00:17:14;;;;;;;5.97;2.60;;;7.70;99.90;;;;;;5094502;28;20481;-88
2023/10/17 00:19:41;;;;;;;5.97;2.50;;;7.70;99.90;;;;;;5093994;28;20044;-88
2023/10/17 00:22:09;;;;;;;5.88;2.08;;;7.60;99.90;;;;;;5077343;28;20059;-88
2023/10/17 00:24:35;;;;;;;6.45;2.50;;;7.60;99.90;;;;;;5093927;28;20035;-88
2023/10/17 00:27:02;;;;;;;5.82;2.40;;;7.60;99.90;;;;;;5094260;28;20375;-88
2023/10/17 00:29:28;;;;;;;7.40;2.28;;;7.60;99.90;;;;;;5076893;28;20513;-88
2023/10/17 00:31:55;;;;;;;5.93;2.25;;;7.60;99.90;;;;;;5077113;28;20067;-88
2023/10/17 00:34:23;;;;;;;7.05;2.42;;;7.60;99.90;;;;;;5085627;28;20031;-88
2023/10/17 00:36:49;;;;;;;4.53;1.77;;;7.60;99.90;;;;;;5077455;28;20517;-88
2023/10/17 00:39:28;;;;;;;8.50;2.40;;;7.60;99.90;;;;;;5076984;28;20043;-88
2023/10/17 00:44:32;;;;;;;5.15;2.15;;;7.60;99.90;;;;;;5094456;28;20043;-88
2023/10/17 00:46:59;;;;;;;5.70;2.42;;;7.60;99.90;;;;;;5077189;28;20036;-88
2023/10/17 00:49:26;;;;;;;8.95;2.05;;;7.60;99.90;;;;;;5093788;28;20047;-88
2023/10/17 00:51:59;;;;;;;6.57;1.88;;;7.60;99.90;;;;;;5079607;28;20076;-88
2023/10/17 00:54:26;;;;;;;5.00;2.05;;;7.50;99.90;;;;;;5080895;28;20085;-88
2023/10/17 00:56:55;;;;;;;5.57;2.00;;;7.50;99.90;;;;;;5080946;28;20579;-88
2023/10/17 00:59:25;;;;;;;5.95;1.95;;;7.50;99.90;;;;;;5080038;28;20391;-88
2023/10/17 01:01:51;;;;;;;8.43;2.60;;;7.50;99.90;;;;;;5097524;28;20044;-89
2023/10/17 01:04:22;;;;;;;4.72;1.83;;;7.50;99.90;;;;;;5084011;28;20114;-88
2023/10/17 01:06:54;;;;;;;7.57;2.30;;;7.50;99.90;;;;;;5098261;28;20039;-88
2023/10/17 01:09:24;;;;;;;6.88;2.35;;;7.50;99.90;;;;;;5088796;28;20500;-88
2023/10/17 01:11:50;;;;;;;4.03;1.65;;;7.50;99.90;;;;;;5080559;28;20032;-88
2023/10/17 01:14:19;;;;;;;4.10;1.73;;;7.50;99.90;;;;;;5097315;28;20096;-88
2023/10/17 01:16:51;;;;;;;7.32;2.55;;;7.50;99.90;;;;;;5080443;28;20043;-88
2023/10/17 01:19:19;;;;;;;6.05;2.13;;;7.50;99.90;;;;;;5080661;28;20551;-88
2023/10/17 01:21:45;;;;;;;7.70;2.22;;;7.50;99.90;;;;;;5097727;28;20032;-88
2023/10/17 01:24:12;;;;;;;5.03;1.80;;;7.50;99.90;;;;;;5097502;28;20107;-88
2023/10/17 01:26:38;;;;;;;7.90;2.25;;;7.40;99.90;;;;;;5103321;28;20513;-89
2023/10/17 01:29:04;;;;;;;6.55;2.35;;;7.40;99.90;;;;;;5096983;28;20040;-88
2023/10/17 01:31:33;;;;;;;7.07;2.58;;;7.40;99.90;;;;;;5096028;28;20494;-88
2023/10/17 01:33:59;;;;;;;6.50;2.03;;;7.40;99.90;;;;;;5079738;28;20138;-88
2023/10/17 01:36:25;;;;;;;5.22;2.33;;;7.40;99.90;;;;;;5096527;28;20043;-88
2023/10/17 01:38:52;;;;;;;5.30;1.77;;;7.40;99.90;;;;;;5079724;28;20046;-88
2023/10/17 01:41:18;;;;;;;6.43;2.08;;;7.30;99.90;;;;;;5096681;28;20044;-88
2023/10/17 01:43:47;;;;;;;6.97;2.13;;;7.30;99.90;;;;;;5080324;28;20433;-88
2023/10/17 01:46:15;;;;;;;8.93;2.60;;;7.30;99.90;;;;;;5088232;28;20088;-88
2023/10/17 01:48:49;;;;;;;7.22;2.45;;;7.30;99.90;;;;;;5088180;28;20039;-89
2023/10/17 01:51:15;;;;;;;7.13;2.47;;;7.30;99.90;;;;;;5096492;28;20043;-88
2023/10/17 01:53:43;;;;;;;5.38;1.70;;;7.30;99.90;;;;;;5079612;28;20040;-88
2023/10/17 01:56:20;;;;;;;6.38;1.80;;;7.30;99.90;;;;;;5079386;28;20044;-88
2023/10/17 01:58:50;;;;;;;5.13;1.77;;;7.30;99.90;;;;;;5096656;28;20042;-89
2023/10/17 02:01:24;;;;;;;5.88;1.92;;;7.30;99.90;;;;;;5078615;28;20559;-88
2023/10/17 02:04:02;;;;;;;5.13;1.80;;;7.20;99.90;;;;;;5078571;28;20036;-88
2023/10/17 02:06:30;;;;;;;6.07;1.85;;;7.20;99.90;;;;;;5096739;28;20040;-88
2023/10/17 02:08:58;;;;;;;7.28;2.30;;;7.20;99.90;;;;;;5081246;28;20100;-88
2023/10/17 02:11:24;;;;;;;6.18;1.95;;;7.20;99.90;;;;;;5096093;28;20043;-88
2023/10/17 02:13:56;;;;;;;5.75;2.00;;;7.20;99.90;;;;;;5096464;28;20495;-89
2023/10/17 02:16:28;;;;;;;6.20;2.28;;;7.20;99.90;;;;;;5079544;28;20412;-88
2023/10/17 02:18:58;;;;;;;7.03;2.45;;;7.20;99.90;;;;;;5095930;28;20577;-88
2023/10/17 02:21:27;;;;;;;5.15;1.88;;;7.20;99.90;;;;;;5087626;28;20044;-88
2023/10/17 02:23:53;;;;;;;6.32;1.77;;;7.20;99.90;;;;;;5079320;28;20054;-88
2023/10/17 02:26:22;;;;;;;6.47;2.70;;;7.20;99.90;;;;;;5095740;28;20054;-88
2023/10/17 02:28:50;;;;;;;5.40;2.13;;;7.20;99.90;;;;;;5095544;28;20035;-88
2023/10/17 02:31:16;;;;;;;7.45;2.55;;;7.20;99.90;;;;;;5095490;28;20040;-88
2023/10/17 02:33:43;;;;;;;5.85;2.00;;;7.20;99.90;;;;;;5095685;28;20047;-88
2023/10/17 02:36:12;;;;;;;6.65;1.88;;;7.20;99.90;;;;;;5078095;28;20071;-88
2023/10/17 02:38:39;;;;;;;4.22;1.70;;;7.20;99.90;;;;;;5095535;28;20043;-88
2023/10/17 02:41:08;;;;;;;7.25;2.38;;;7.20;99.90;;;;;;5078695;28;20032;-88
2023/10/17 02:43:40;;;;;;;6.45;2.13;;;7.20;99.90;;;;;;5078976;28;20098;-87
2023/10/17 02:46:06;;;;;;;4.50;1.80;;;7.20;99.90;;;;;;5095856;28;20046;-88
2023/10/17 02:48:38;;;;;;;4.63;2.17;;;7.20;99.90;;;;;;5095602;28;20080;-88
2023/10/17 02:53:52;;;;;;;4.30;1.70;;;7.20;99.90;;;;;;5095530;28;20514;-88
2023/10/17 02:56:18;;;;;;;5.05;1.75;;;7.20;99.90;;;;;;5078532;28;20042;-87
2023/10/17 02:58:51;;;;;;;6.68;2.58;;;7.20;99.90;;;;;;5095284;28;20039;-87
2023/10/17 03:01:22;;;;;;;9.23;2.75;;;7.10;99.90;;;;;;5078553;28;20495;-87
2023/10/17 03:03:50;;;;;;;6.47;2.13;;;7.10;99.90;;;;;;5094623;28;20044;-88
2023/10/17 03:06:18;;;;;;;7.05;2.20;;;7.10;99.90;;;;;;5078639;28;20036;-87
2023/10/17 03:08:51;;;;;;;7.28;2.42;;;7.00;99.90;;;;;;5078154;28;20039;-87
2023/10/17 03:11:47;;;;;;;7.13;2.30;;;6.90;99.90;;;;;;5086806;28;20052;-88
2023/10/17 03:14:19;;;;;;;8.07;2.63;;;6.90;99.90;;;;;;5094871;28;20050;-88
2023/10/17 03:16:52;;;;;;;5.65;1.60;;;6.90;99.90;;;;;;5078560;28;20039;-88
2023/10/17 03:19:25;;;;;;;;;;;6.90;99.90;;;;;;5078307;28;20036;-88
2023/10/17 03:21:53;;;;;;;6.20;2.22;;;6.90;99.90;;;;;;5077905;28;20378;-88
2023/10/17 03:24:19;;;;;;;7.43;2.42;;;6.80;99.90;;;;;;5077986;28;20051;-88
2023/10/17 03:26:54;;;;;;;5.50;1.52;;;6.80;99.90;;;;;;5078087;28;20081;-88
2023/10/17 03:29:23;;;;;;;3.53;1.42;;;6.70;99.90;;;;;;5094523;28;20542;-88
2023/10/17 03:31:58;;;;;;;4.60;1.85;;;6.70;99.90;;;;;;5094285;28;20065;-88
2023/10/17 03:34:57;;;;;;;6.55;1.67;;;6.60;99.90;;;;;;5078079;28;20038;-88
2023/10/17 03:39:56;;;;;;;5.10;1.60;;;6.60;99.90;;;;;;5094948;28;20392;-88
2023/10/17 03:42:44;;;;;;;4.07;1.60;;;6.50;99.90;;;;;;5094972;28;20047;-88
2023/10/17 03:45:13;;;;;;;4.25;1.83;;;6.50;99.90;;;;;;5094602;28;20050;-88
2023/10/17 03:47:39;;;;;;;2.50;1.02;;;6.50;99.90;;;;;;5077881;28;20039;-88
2023/10/17 03:50:09;;;;;;;3.63;1.30;;;6.40;99.90;;;;;;5094283;28;20127;-88
2023/10/17 03:52:38;;;;;;;6.32;1.88;;;6.50;99.90;;;;;;5078581;28;20036;-88
2023/10/17 03:55:10;;;;;;;6.32;1.80;;;6.50;99.90;;;;;;5103069;27;20084;-88
2023/10/17 03:57:45;;;;;;;4.65;1.98;;;6.50;99.90;;;;;;5086066;28;20034;-88
2023/10/17 04:00:25;;;;;;;4.55;1.80;;;6.50;99.90;;;;;;5104478;28;20065;-88
2023/10/17 04:02:51;;;;;;;4.45;1.58;;;6.50;99.90;;;;;;5094505;28;20122;-89
2023/10/17 04:05:17;;;;;;;4.03;1.73;;;6.50;99.90;;;;;;5094408;28;20047;-89
2023/10/17 04:07:51;;;;;;;7.10;2.70;;;6.50;99.90;;;;;;5094421;28;20080;-88
2023/10/17 04:10:20;;;;;;;5.63;1.98;;;6.50;99.90;;;;;;5077294;28;20062;-88
2023/10/17 04:12:49;;;;;;;7.30;2.15;;;6.50;99.90;;;;;;5076934;28;20035;-88
2023/10/17 04:15:19;;;;;;;5.15;1.95;;;6.60;99.90;;;;;;5094663;28;20077;-88
2023/10/17 04:17:46;;;;;;;6.03;2.15;;;6.60;99.90;;;;;;5094197;28;20047;-89
2023/10/17 04:20:12;;;;;;;5.93;1.65;;;6.60;99.90;;;;;;5094131;28;20076;-88
2023/10/17 04:22:40;;;;;;;4.13;1.83;;;6.50;99.90;;;;;;5100828;28;20039;-88
2023/10/17 04:27:54;;;;;;;4.32;1.60;;;6.50;99.90;;;;;;5106953;28;20040;-88
2023/10/17 04:30:29;;;;;;;4.40;1.48;;;6.50;99.90;;;;;;5084985;28;20035;-89
2023/10/17 04:33:05;;;;;;;7.75;1.40;;;6.40;99.90;;;;;;5098495;28;20044;-89
2023/10/17 04:35:32;;;;;;;5.38;1.38;;;6.40;99.90;;;;;;5098243;28;20043;-88
2023/10/17 04:38:16;;;;;;;3.17;1.50;;;6.40;99.90;;;;;;5081176;28;20123;-88
2023/10/17 04:40:50;;;;;;;4.97;2.08;;;6.40;99.90;;;;;;5081383;28;20490;-88
2023/10/17 04:46:01;;;;;;;4.80;1.70;;;6.40;99.90;;;;;;5098405;28;20035;-88
2023/10/17 04:48:35;;;;;;;5.40;1.70;;;6.30;99.90;;;;;;5098033;28;20105;-88
2023/10/17 04:53:51;;;;;;;4.10;1.33;;;6.30;99.90;;;;;;5098339;28;20043;-88
2023/10/17 04:56:18;;;;;;;5.88;1.85;;;6.30;99.90;;;;;;5098017;28;20084;-88
2023/10/17 05:04:19;;;;;;;7.82;2.35;;;6.20;99.90;;;;;;5097683;28;20055;-88
2023/10/17 06:17:49;;;;;;;3.67;1.08;;;5.50;99.90;;;;;;5102367;28;20044;-88
2023/10/17 06:20:44;;;;;;;3.25;1.23;;;5.60;99.90;;;;;;5084106;28;20486;-88
2023/10/17 06:24:06;;;;;;;5.78;1.95;;;5.60;99.90;;;;;;5103252;28;20040;-88
2023/10/17 06:26:46;;;;;;;4.30;2.20;;;5.60;99.90;;;;;;5095995;28;20042;-87
2023/10/17 06:34:21;;;;;;;4.70;1.40;;;5.60;99.90;;;;;;5101781;27;20047;-87
2023/10/17 06:36:59;;;;;;;5.53;1.60;;;5.60;99.90;;;;;;5103230;27;20091;-87
2023/10/17 06:39:36;;;;;;;4.43;1.70;;;5.60;99.90;;;;;;5100175;28;20395;-87
2023/10/17 06:42:14;;;;;;;5.32;2.13;;;5.60;99.90;;;;;;5094096;27;20031;-88
2023/10/17 06:47:31;;;;;;;3.53;1.23;;;5.60;99.90;;;;;;5117109;28;20027;-88
2023/10/17 06:55:28;;;;;;;3.42;1.10;;;5.60;99.90;;;;;;5104388;28;20059;-87
2023/10/17 06:58:08;;;;;;;7.13;1.38;;;5.60;99.90;;;;;;5093970;28;20043;-87
2023/10/17 07:03:15;;;;;;;3.42;0.90;;;5.60;99.90;;;;;;5092805;28;20044;-87
2023/10/17 07:05:42;;;;;;;0.50;0.40;;;5.60;99.90;;;;;;5075938;28;20156;-87
2023/10/17 07:08:14;;;;;;;1.67;0.60;;;5.60;99.90;;;;;;5092815;28;20066;-88
2023/10/17 07:10:53;;;;;;;1.42;0.82;;;5.60;99.90;;;;;;5100366;28;20082;-87
2023/10/17 07:13:54;;;;;;;3.15;0.98;;;5.60;99.90;;;;;;5097731;27;20407;-87
2023/10/17 07:16:32;;;;;;;2.78;1.23;;;5.60;99.90;;;;;;5079874;28;20632;-86
2023/10/17 07:24:35;;;;;;;6.55;1.70;;;5.70;99.90;;;;;;5102480;28;20046;-87
2023/10/17 07:27:03;;;;;;;5.70;1.92;;;5.70;99.90;;;;;;5094149;28;20124;-87
2023/10/17 07:29:36;;;;;;;9.55;2.60;;;5.80;99.90;;;;;;5093496;28;20061;-88
2023/10/17 07:32:09;;;;;;;7.75;2.60;;;5.90;99.90;;;;;;5094577;28;20480;-87
2023/10/17 07:34:35;;;;;;;7.80;3.20;;;6.00;99.90;;;;;;5084754;28;20380;-87
2023/10/17 07:39:59;;;;;;;6.65;2.90;;;6.20;99.90;;;;;;5102769;28;20051;-87
2023/10/17 07:42:31;;;;;;;7.40;3.70;;;6.30;99.90;;;;;;5077988;28;20116;-87
2023/10/17 07:45:01;;;;;;;8.63;3.22;;;6.30;99.90;;;;;;5077832;28;20074;-87
2023/10/17 07:47:35;;;;;;;6.82;2.60;;;6.40;99.90;;;;;;5085318;28;20551;-87
2023/10/17 07:50:01;;;;;;;7.80;3.35;;;6.50;99.90;;;;;;5092965;28;20061;-87
2023/10/17 07:52:30;;;;;;;11.13;4.57;;;6.50;99.90;;;;;;5086091;28;20491;-87
2023/10/17 07:55:17;;;;;;;7.80;3.58;;;6.60;99.90;;;;;;5077888;28;20039;-87
2023/10/17 07:57:43;;;;;;;6.00;2.92;;;6.70;99.90;;;;;;5094968;28;20064;-87
2023/10/17 08:03:00;;;;;;;8.15;3.42;;;6.80;99.90;;;;;;5097944;28;20040;-87
2023/10/17 08:05:36;;;;;;;7.65;3.38;;;6.90;99.90;;;;;;5086060;28;20088;-88
2023/10/17 08:08:08;;;;;;;7.90;3.30;;;6.90;99.90;;;;;;5094749;28;20071;-88
2023/10/17 08:10:39;;;;;;;10.23;3.85;;;7.00;99.90;;;;;;5077527;28;20074;-89
2023/10/17 08:13:07;;;;;;;6.97;3.05;;;7.10;99.90;;;;;;5077605;28;20043;-88
2023/10/17 08:15:38;;;;;;;7.35;3.33;;;7.10;99.90;;;;;;5084302;28;20071;-88
2023/10/17 08:18:14;;;;;;;8.40;4.00;;;7.20;99.90;;;;;;5077566;28;20051;-89
2023/10/17 08:23:27;;;;;;;9.70;3.58;;;7.40;99.90;;;;;;5094103;28;20414;-88
2023/10/17 08:26:01;;;;;;;8.07;2.70;;;7.40;99.90;;;;;;5077766;28;20047;-88
2023/10/17 08:28:37;;;;;;;9.48;3.25;;;7.50;99.90;;;;;;5094093;28;20075;-89
2023/10/17 08:31:13;;;;;;;7.03;2.80;;;7.60;99.90;;;;;;5077424;28;20036;-88
2023/10/17 08:33:42;;;;;;;7.93;3.55;;;7.60;99.90;;;;;;5077368;28;20042;-88
2023/10/17 08:36:10;;;;;;;7.35;2.50;;;7.70;99.90;;;;;;5094181;28;20502;-88
2023/10/17 08:38:39;;;;;;;6.25;2.58;;;7.80;99.90;;;;;;5093986;28;20119;-88
2023/10/17 08:41:06;;;;;;;8.50;2.08;;;7.90;99.90;;;;;;5093965;28;20036;-88
2023/10/17 08:43:36;;;;;;;6.63;2.58;;;7.90;99.90;;;;;;5077416;28;20062;-88
2023/10/17 08:46:06;;;;;;;5.75;2.33;;;8.00;99.90;;;;;;5081516;28;20119;-88
2023/10/17 08:48:34;;;;;;;4.55;1.73;;;8.10;99.90;;;;;;5093889;28;20078;-89
2023/10/17 08:51:00;;;;;;;6.13;2.38;;;8.20;99.90;;;;;;5085383;28;20122;-88
2023/10/17 08:53:26;;;;;;;6.22;2.45;;;8.30;99.90;;;;;;5077175;28;20120;-88
2023/10/17 08:55:52;;;;;;;7.82;3.08;;;8.30;99.90;;;;;;5077320;28;20495;-89
2023/10/17 08:58:24;;;;;;;8.05;2.50;;;8.40;99.90;;;;;;5081103;28;20114;-89
2023/10/17 09:00:55;;;;;;;11.35;3.00;;;8.50;99.90;;;;;;5081568;28;20031;-89
2023/10/17 09:03:31;;;;;;;7.88;2.40;;;8.60;99.90;;;;;;5081604;28;20482;-89
2023/10/17 09:05:58;;;;;;;7.20;1.88;;;8.60;99.90;;;;;;5103384;28;20036;-89
2023/10/17 09:11:29;;;;;;;5.22;2.00;;;8.80;99.90;;;;;;5071695;28;20036;-89
2023/10/17 09:14:17;;;;;;;8.88;1.95;;;9.00;99.90;;;;;;5081459;28;20035;-89
2023/10/17 09:17:02;;;;;;;4.82;1.45;;;9.10;99.90;;;;;;5095567;28;20051;-89
2023/10/17 09:19:38;;;;;;;5.68;1.35;;;9.20;99.90;;;;;;5079012;28;20403;-89
2023/10/17 09:22:05;;;;;;;8.02;2.20;;;9.30;99.90;;;;;;5080646;28;20548;-90
2023/10/17 09:24:36;;;;;;;3.50;1.20;;;9.40;99.90;;;;;;5097201;28;20042;-89
2023/10/17 09:27:06;;;;;;;4.45;1.38;;;9.50;99.90;;;;;;5079879;28;20114;-89
2023/10/17 09:29:43;;;;;;;7.03;1.17;;;9.60;99.90;;;;;;5079749;28;20122;-89
2023/10/17 09:32:10;;;;;;;4.35;1.65;;;9.70;99.90;;;;;;5081740;28;20086;-94
2023/10/17 09:34:38;;;;;;;6.15;1.60;;;9.80;99.90;;;;;;5094719;28;20079;-90
2023/10/17 09:37:05;;;;;;;2.47;0.85;;;9.90;99.90;;;;;;5077083;28;20448;-89
2023/10/17 09:39:39;;;;;;;2.45;0.85;;;9.90;99.90;;;;;;5095311;28;20081;-89
2023/10/17 09:42:05;;;;;;;2.00;0.70;;;10.10;99.90;;;;;;5078389;28;20494;-89
2023/10/17 09:44:32;;;;;;;2.05;0.70;;;10.10;99.90;;;;;;5080920;28;20050;-89
2023/10/17 09:47:02;;;;;;;2.75;0.75;;;10.20;99.90;;;;;;5096487;28;20070;-89
2023/10/17 09:49:37;;;;;;;3.38;1.10;;;10.30;99.90;;;;;;5104352;28;20036;-89
2023/10/17 09:52:09;;;;;;;2.10;0.68;;;10.40;99.90;;;;;;5097329;28;20063;-90
2023/10/17 09:54:40;;;;;;;2.95;0.90;;;10.50;99.90;;;;;;5080174;28;20043;-91
2023/10/17 09:57:12;;;;;;;3.40;0.90;;;10.50;99.90;;;;;;5085800;28;20075;-90
2023/10/17 10:00:00;;;;;;;1.63;0.70;;;10.60;99.90;;;;;;5096500;28;20036;-89
2023/10/17 10:02:26;;;;;;;3.35;1.05;;;10.70;99.90;;;;;;5080743;28;20517;-90
2023/10/17 10:04:52;;;;;;;2.13;0.80;;;10.80;99.90;;;;;;5079713;28;20040;-90
2023/10/17 10:07:19;;;;;;;6.22;1.17;;;10.90;99.90;;;;;;5104454;28;20114;-90
2023/10/17 10:09:44;;;;;;;1.50;0.60;;;11.00;99.90;;;;;;5096280;28;20044;-89
2023/10/17 10:12:10;;;;;;;1.45;0.65;;;11.10;99.90;;;;;;5079726;28;20035;-89
2023/10/17 10:14:40;;;;;;;5.65;0.70;;;11.10;99.90;;;;;;5088212;28;20502;-90
2023/10/17 10:17:08;;;;;;;1.90;0.63;;;11.30;99.90;;;;;;5079790;28;20044;-89
2023/10/17 10:19:48;;;;;;;5.95;1.67;;;11.30;99.90;;;;;;5087581;28;20560;-89
2023/10/17 10:22:17;;;;;;;2.80;0.95;;;11.50;99.90;;;;;;5080425;28;20032;-89
2023/10/17 10:24:45;;;;;;;2.83;0.90;;;11.60;99.90;;;;;;5098287;28;20335;-89
2023/10/17 10:27:13;;;;;;;3.45;0.57;;;11.60;99.90;;;;;;5085715;28;20027;-90
2023/10/17 10:29:42;;;;;;;4.38;0.85;;;11.70;99.90;;;;;;5089960;27;20089;-90
2023/10/17 10:32:27;;;;;;;3.15;0.90;;;11.80;99.90;;;;;;5082375;28;20036;-90
2023/10/17 10:34:53;;;;;;;2.70;0.82;;;11.80;99.90;;;;;;5081814;27;20069;-90
2023/10/17 10:37:21;;;;;;;2.28;0.57;;;11.80;99.90;;;;;;5085082;28;20063;-90
2023/10/17 10:40:12;;;;;;;1.85;0.60;;;11.90;99.90;;;;;;5078620;28;20110;-90
2023/10/17 10:42:47;;;;;;;9.80;1.50;;;12.00;99.90;;;;;;5081266;28;20039;-88
2023/10/17 10:45:35;;;;;;;2.22;0.90;;;12.10;99.90;;;;;;5096834;28;20055;-89
2023/10/17 10:48:24;;;;;;;1.73;0.70;;;12.20;99.90;;;;;;5095599;28;20510;-89
2023/10/17 10:50:55;;;;;;;3.75;0.82;;;12.30;99.90;;;;;;5078229;28;20039;-89
2023/10/17 10:53:32;;;;;;;3.03;0.90;;;12.30;99.90;;;;;;5087008;28;20085;-88
2023/10/17 10:56:00;;;;;;;7.05;1.40;;;12.40;99.90;;;;;;5087300;28;20441;-88
2023/10/17 10:58:27;;;;;;;2.78;0.82;;;12.50;99.90;;;;;;5078410;28;20483;-89
2023/10/17 11:00:54;;;;;;;1.10;0.50;;;12.60;99.90;;;;;;5087072;28;20122;-88
2023/10/17 11:03:22;;;;;;;5.97;1.55;;;12.50;99.90;;;;;;5079234;28;20575;-89
2023/10/17 11:06:08;;;;;;;2.15;0.70;;;12.70;99.90;;;;;;5097235;28;20046;-89
2023/10/17 11:08:45;;;;;;;3.65;0.85;;;12.70;99.90;;;;;;5094351;28;20118;-89
2023/10/17 11:11:13;;;;;;;3.92;1.20;;;12.70;99.90;;;;;;5095035;28;20044;-88
2023/10/17 11:13:41;;;;;;;4.70;0.90;;;12.80;99.90;;;;;;5094330;28;20039;-88
2023/10/17 11:16:07;;;;;;;5.47;1.60;;;12.90;99.90;;;;;;5077984;28;20068;-89
2023/10/17 11:18:34;;;;;;;4.00;0.90;;;13.00;99.90;;;;;;5094524;28;20039;-89
2023/10/17 11:21:00;;;;;;;3.78;0.98;;;13.00;99.90;;;;;;5077439;28;20031;-90
2023/10/17 11:23:27;;;;;;;2.38;0.70;;;13.10;99.90;;;;;;5075580;28;20032;-89
2023/10/17 11:25:54;;;;;;;4.43;1.25;;;13.10;99.90;;;;;;5076223;28;20032;-89
2023/10/17 11:28:20;;;;;;;6.50;1.33;;;13.20;99.90;;;;;;5094425;28;20410;-89
2023/10/17 11:30:48;;;;;;;2.75;0.88;;;13.30;99.90;;;;;;5096883;28;20439;-89
2023/10/17 11:33:16;;;;;;;3.30;0.98;;;13.40;99.90;;;;;;5085754;28;20040;-90
2023/10/17 11:35:50;;;;;;;4.25;0.80;;;13.40;99.90;;;;;;5081065;28;20039;-90
2023/10/17 11:38:35;;;;;;;4.05;0.75;;;13.40;99.90;;;;;;5088819;28;20050;-90
2023/10/17 11:41:05;;;;;;;6.05;1.30;;;13.50;99.90;;;;;;5079507;28;20036;-90
2023/10/17 11:43:53;;;;;;;5.28;1.02;;;13.70;99.90;;;;;;5078172;28;20039;-89
2023/10/17 11:46:29;;;;;;;3.60;1.27;;;13.80;99.90;;;;;;5078495;28;20083;-89
2023/10/17 11:49:32;;;;;;;3.58;0.70;;;13.80;99.90;;;;;;5086936;28;20454;-90
2023/10/17 11:52:12;;;;;;;3.75;1.05;;;13.80;99.90;;;;;;5100848;28;20051;-90
2023/10/17 11:55:11;;;;;;;5.25;0.98;;;14.00;99.90;;;;;;5086537;27;20031;-90
2023/10/17 11:57:37;;;;;;;3.38;1.00;;;14.00;99.90;;;;;;5116016;28;20079;-90
2023/10/17 12:00:19;;;;;;;6.30;1.90;;;14.10;99.90;;;;;;5087486;28;20550;-90
2023/10/17 12:02:47;;;;;;;5.25;1.70;;;14.20;99.90;;;;;;5079178;28;20043;-90
2023/10/17 12:05:20;;;;;;;3.33;1.00;;;14.20;93.60;;;;;;5096157;28;20032;-90
2023/10/17 12:07:49;;;;;;;4.53;1.17;;;14.20;96.50;;;;;;5078425;28;20036;-90
2023/10/17 12:10:15;;;;;;;8.38;2.15;;;14.30;96.00;;;;;;5086556;28;20082;-90
2023/10/17 12:12:41;;;;;;;3.35;1.08;;;14.30;96.20;;;;;;5083484;28;20042;-90
2023/10/17 12:15:13;;;;;;;7.00;2.55;;;14.40;96.40;;;;;;5101268;28;20039;-90
2023/10/17 12:17:39;;;;;;;4.10;1.15;;;14.50;92.70;;;;;;5077499;28;20035;-91
2023/10/17 12:20:11;;;;;;;3.03;0.93;;;14.60;94.30;;;;;;5077584;28;20040;-90
2023/10/17 12:22:37;;;;;;;4.50;1.30;;;14.70;93.90;;;;;;5094723;28;20036;-90
2023/10/17 12:25:04;;;;;;;4.32;0.90;;;14.80;91.70;;;;;;5077235;28;20116;-90
2023/10/17 12:27:30;;;;;;;6.50;1.70;;;15.00;93.00;;;;;;5081863;28;20035;-90
2023/10/17 12:29:56;;;;;;;4.90;1.50;;;15.00;88.10;;;;;;5087825;28;20379;-90
2023/10/17 12:32:22;;;;;;;5.97;1.30;;;15.20;85.40;;;;;;5081040;28;20111;-90
2023/10/17 12:34:49;;;;;;;5.00;1.20;;;15.30;85.30;;;;;;5080774;28;20607;-90
2023/10/17 12:37:17;;;;;;;5.47;1.15;;;15.50;82.10;;;;;;5076022;28;20048;-90
2023/10/17 12:39:43;;;;;;;5.70;1.23;;;15.50;84.80;;;;;;5093551;28;20043;-90
2023/10/17 12:42:09;;;;;;;2.88;0.95;;;15.60;82.50;;;;;;5094274;28;20042;-90
2023/10/17 12:44:36;;;;;;;6.10;1.50;;;15.80;85.80;;;;;;5077729;28;20035;-90
2023/10/17 12:47:01;;;;;;;6.88;1.50;;;16.00;85.10;;;;;;5086755;28;20044;-90
2023/10/17 12:49:28;;;;;;;6.03;0.95;;;16.30;79.10;;;;;;5080948;28;20490;-90
2023/10/17 12:51:53;;;;;;;2.33;0.93;;;16.90;79.80;;;;;;5081084;28;20487;-91
2023/10/17 12:54:19;;;;;;;5.95;1.58;;;18.10;80.60;;;;;;5080952;28;20279;-90
2023/10/17 12:56:44;;;;;;;4.65;1.38;;;18.90;72.90;;;;;;5098231;28;20055;-90
2023/10/17 12:59:13;;;;;;;5.32;1.25;;;19.20;72.20;;;;;;5080748;28;20096;-90
2023/10/17 13:01:42;;;;;;;5.03;1.30;;;19.00;68.10;;;;;;5080818;28;20046;-90
2023/10/17 13:04:09;;;;;;;5.20;1.30;;;19.00;67.70;;;;;;5087300;28;20035;-90
2023/10/17 13:06:38;;;;;;;6.78;1.50;;;19.40;70.00;;;;;;5087901;27;20043;-90
2023/10/17 13:09:04;;;;;;;3.45;1.08;;;20.40;70.60;;;;;;5076775;28;20118;-90
2023/10/17 13:11:30;;;;;;;4.95;1.30;;;21.80;66.90;;;;;;5079411;28;20046;-90
2023/10/17 13:13:57;;;;;;;4.93;1.23;;;23.30;63.90;;;;;;5097399;28;20050;-91
2023/10/17 13:16:26;;;;;;;5.43;1.40;;;24.30;61.50;;;;;;5093266;28;20164;-90
2023/10/17 13:18:56;;;;;;;4.47;1.30;;;25.50;58.40;;;;;;5092050;28;20068;-91
2023/10/17 13:21:23;;;;;;;5.88;1.30;;;26.50;56.10;;;;;;5068704;28;20031;-92
2023/10/17 13:23:48;;;;;;;4.13;1.38;;;27.30;53.90;;;;;;5076610;28;20043;-91
2023/10/17 13:26:15;;;;;;;5.80;1.65;;;28.10;52.40;;;;;;5094716;28;20036;-92
2023/10/17 13:28:41;;;;;;;4.07;1.02;;;28.90;51.10;;;;;;5080330;28;20122;-92
2023/10/17 13:31:14;;;;;;;5.68;1.20;;;29.40;49.70;;;;;;5103026;28;20502;-91
2023/10/17 13:33:49;;;;;;;6.07;1.33;;;29.60;47.40;;;;;;5082510;28;20498;-91
2023/10/17 13:36:16;;;;;;;5.38;1.42;;;29.20;47.20;;;;;;5096454;28;20499;-91
2023/10/17 13:38:43;;;;;;;4.82;1.10;;;28.30;47.30;;;;;;5080378;28;20066;-90
2023/10/17 13:41:09;;;;;;;5.78;1.40;;;27.80;46.60;;;;;;5097066;28;20036;-91
2023/10/17 13:43:38;;;;;;;5.72;1.30;;;27.20;46.30;;;;;;5080045;28;20047;-91
2023/10/17 13:46:16;;;;;;;4.05;1.00;;;26.30;47.40;;;;;;5080222;28;20088;-91
2023/10/17 13:48:50;;;;;;;5.70;1.42;;;25.50;47.50;;;;;;5080072;28;20046;-91
2023/10/17 13:51:18;;;;;;;5.55;1.30;;;24.80;48.10;;;;;;5079544;28;20410;-91
2023/10/17 13:53:45;;;;;;;5.32;1.50;;;24.30;48.60;;;;;;5079992;28;20440;-91
2023/10/17 13:56:15;;;;;;;4.85;1.35;;;23.80;49.20;;;;;;5096745;28;20126;-90
2023/10/17 13:58:41;;;;;;;6.03;1.45;;;23.50;49.90;;;;;;5087666;28;20088;-90
2023/10/17 14:01:27;;;;;;;4.80;1.42;;;23.00;50.40;;;;;;5079556;28;20444;-90
2023/10/17 14:03:56;;;;;;;8.35;2.30;;;22.60;50.90;;;;;;5096477;28;20084;-90
2023/10/17 14:06:22;;;;;;;7.50;2.15;;;22.20;51.90;;;;;;5079169;28;20483;-91
2023/10/17 14:08:48;;;;;;;6.55;2.05;;;22.20;52.90;;;;;;5096090;28;20040;-90
2023/10/17 14:11:19;;;;;;;6.80;2.03;;;22.10;52.60;;;;;;5096034;28;20038;-90
2023/10/17 14:13:51;;;;;;;5.63;1.50;;;22.10;51.90;;;;;;5079717;28;20387;-91
2023/10/17 14:16:22;;;;;;;6.47;1.85;;;22.30;52.20;;;;;;5079574;28;20055;-91
2023/10/17 14:18:52;;;;;;;7.00;2.33;;;22.20;52.40;;;;;;5085574;28;20038;-91
2023/10/17 14:23:57;;;;;;;8.00;2.10;;;21.70;53.20;;;;;;5093270;28;20039;-90
2023/10/17 14:26:24;;;;;;;6.53;1.70;;;21.60;53.60;;;;;;5078270;28;20039;-90
2023/10/17 14:28:52;;;;;;;5.70;1.75;;;21.40;54.60;;;;;;5094672;28;20047;-91
2023/10/17 14:31:18;;;;;;;5.05;1.50;;;21.40;54.00;;;;;;5095265;28;20035;-91
2023/10/17 14:33:44;;;;;;;6.47;1.90;;;21.30;54.70;;;;;;5076076;28;20046;-90
2023/10/17 14:36:09;;;;;;;6.10;1.80;;;21.70;54.90;;;;;;5080747;27;20031;-91
2023/10/17 14:38:35;;;;;;;5.32;1.55;;;22.50;53.80;;;;;;5102691;27;20514;-90
2023/10/17 14:41:08;;;;;;;6.30;1.50;;;23.30;52.40;;;;;;5104796;27;20165;-91
2023/10/17 14:43:35;;;;;;;6.97;1.42;;;24.40;50.90;;;;;;5084625;27;20121;-91
2023/10/17 14:46:01;;;;;;;4.57;1.33;;;25.50;48.90;;;;;;5087730;27;20056;-91
2023/10/17 14:48:27;;;;;;;3.90;1.05;;;26.50;48.00;;;;;;5095108;28;20058;-91
2023/10/17 14:50:53;;;;;;;8.02;2.55;;;27.40;46.20;;;;;;5077891;28;20039;-91
2023/10/17 14:53:19;;;;;;;7.07;2.10;;;28.20;45.20;;;;;;5082812;27;20084;-91
2023/10/17 14:55:55;;;;;;;5.70;1.50;;;28.60;45.10;;;;;;5092353;27;20121;-92
2023/10/17 14:58:21;;;;;;;6.65;2.08;;;28.50;44.60;;;;;;5094471;27;20032;-91
2023/10/17 15:00:52;;;;;;;5.18;1.35;;;28.40;43.70;;;;;;5107043;27;20383;-91
2023/10/17 15:03:19;;;;;;;6.28;1.40;;;28.30;43.20;;;;;;5111355;27;20532;-91
2023/10/17 15:05:44;;;;;;;7.68;1.55;;;28.70;43.90;;;;;;5094791;27;20098;-91
2023/10/17 15:08:11;;;;;;;6.40;1.70;;;29.30;43.20;;;;;;5090088;28;20039;-91
2023/10/17 15:10:38;;;;;;;5.57;2.00;;;29.70;42.70;;;;;;5096795;27;20036;-91
2023/10/17 15:13:04;;;;;;;5.90;2.20;;;30.00;42.00;;;;;;5089497;27;20145;-91
2023/10/17 15:15:31;;;;;;;6.93;1.50;;;30.30;41.70;;;;;;5083504;27;20126;-91
2023/10/17 15:17:57;;;;;;;5.15;1.20;;;30.50;41.20;;;;;;5100699;27;20083;-91
2023/10/17 15:20:25;;;;;;;5.80;1.30;;;30.60;40.30;;;;;;5080758;28;20403;-90
2023/10/17 15:22:50;;;;;;;5.07;1.20;;;30.80;40.20;;;;;;5077788;28;20054;-92